Menu

ASI In-Person Safety Seminars

Air Safety Institute Logo

Welcome

Join other pilots for comradery and increase your safety knowledge.

Registration is not required to attend, but we do encourage it. When you RSVP, you will be able to have the opportunity to add to your online event calendar.

Collision Course

Collision Course: Avoiding Airborne Traffic

 

The “big sky” can get awfully small when multiple aircraft are in the vicinity. Even with ATC support and traffic displays, near misses happen too frequently and midair collisions still happen. Advanced technologies which ensure more precise course and altitude tracking and more aircraft converging on fewer airports all work to shrink the “big sky”.   

 

ASI’s new seminar looks at the problem from a risk management perspective. We identify high-risk scenarios and locations, then lay out strategies for avoiding them. From congested corridors to frenetic fly-ins, we talk about:

 

·         Human eye limitations that impact the “see and avoid” philosophy

·         Proven techniques on enhancing visual scan effectiveness

·         Maximizing your visibility to other aircraft

·         The promise and peril of cockpit technology

·         “Danger zones” you may not be aware of

Location Start Time End Time State Latitude Longitude cssIndex Topic cssIndex
Tucson, AZ 01-23-2018 7:00 PM 01-23-2018 9:00 PM Learn More Arizona 32.250805000000000 -110.882992000000000 1 mtgCollisionCourse SSCOLL_AZ_180123
Ontario, CA 01-23-2018 7:00 PM 01-23-2018 9:00 PM Learn More California 34.065013000000000 -117.610812000000000 1 mtgCollisionCourse SSCOLL_CA_180123
Costa Mesa, CA 01-24-2018 7:00 PM 01-24-2018 9:00 PM Learn More California 33.685262000000000 -117.885804000000000 1 mtgCollisionCourse SSCOLL_CA_180124
San Diego, CA 01-25-2018 7:00 PM 01-25-2018 9:00 PM Learn More California 32.758909000000000 -117.179693000000000 1 mtgCollisionCourse SSCOLL_CA_180125
Houston, TX 01-25-2018 7:00 PM 01-25-2018 9:00 PM Learn More Texas 29.787817000000000 -95.643658000000000 1 mtgCollisionCourse SSCOLL_TX_180123
Albuquerque, NM 01-25-2018 7:00 PM 01-25-2018 9:00 PM Learn More New Mexico 35.050136000000000 -106.621906000000000 1 mtgCollisionCourse SSCOLL_NM_180125
Addison, TX 01-30-2018 7:00 PM 01-30-2018 9:00 PM Learn More Texas 32.962206000000000 -96.829706000000000 1 mtgCollisionCourse SSCOLL_TX_180130
Ft Worth, TX 01-31-2018 7:00 PM 01-31-2018 9:00 PM Learn More Texas 32.824143000000000 -97.312567000000000 1 mtgCollisionCourse SSCOLL_TX_180131
Northglenn, CO 02-07-2018 7:00 PM 02-07-2018 9:00 PM Learn More Colorado 39.913847000000000 -104.987451000000000 1 mtgCollisionCourse SSCOLL_CO_180207
Colorado Springs, CO 02-08-2018 7:00 PM 02-08-2018 9:00 PM Learn More Colorado 38.796367000000000 -104.795605000000000 1 mtgCollisionCourse SSCOLL_CO_180208
Germantown, TN 02-20-2018 7:00 PM 02-20-2018 9:00 PM Learn More Tennessee 35.096980000000000 -89.806730000000000 1 mtgCollisionCourse SSCOLL_TN_180220
Wichita, KS Special Aviation Location Fly to this Location 02-20-2018 7:00 PM 02-20-2018 9:00 PM Learn More Kansas 37.656569000000000 -97.425559000000000 1 mtgCollisionCourse SSCOLL_KS_180220
Nashville, TN 02-21-2018 7:00 PM 02-21-2018 9:00 PM Learn More Tennessee 36.145806000000000 -86.686244000000000 1 mtgCollisionCourse SSCOLL_TN_180221
Oklahoma City, OK Special Aviation Location Fly to this Location 02-21-2018 7:00 PM 02-21-2018 9:00 PM Learn More Oklahoma 35.540679000000000 -97.636879000000000 1 mtgCollisionCourse SSCOLL_OK_180221
Maryville, TN 02-22-2018 7:00 PM 02-22-2018 9:00 PM Learn More Tennessee 35.810700000000000 -83.946500000000000 1 mtgCollisionCourse SSCOLL_TN_180222
Rogers, AR Special Aviation Location Fly to this Location 02-22-2018 7:00 PM 02-22-2018 9:00 PM Learn More Arkansas 36.370622000000000 -94.103776000000000 1 mtgCollisionCourse SSCOLL_AR_180222
Puyallup, WA 02-25-2018 11:30 AM 02-25-2018 12:30 PM Learn More Washington 47.184336000000000 -122.295204000000000 1 mtgCollisionCourse SSCOLL_WA_180225
Fresno, CA 03-12-2018 7:00 PM 03-12-2018 9:00 PM Learn More California 36.731740000000000 -119.783435000000000 1 mtgCollisionCourse SSCOLL_CA_180312
Jacksonville, FL 03-12-2018 7:00 PM 03-12-2018 9:00 PM Learn More Florida 30.251253000000000 -81.591904000000000 1 mtgCollisionCourse SSCOLL_FL_180312
Concord, CA 03-13-2018 7:00 PM 03-13-2018 9:00 PM Learn More California 37.984721000000000 -122.054909000000000 1 mtgCollisionCourse SSCOLL_CA_180313
Melbourne, FL 03-13-2018 7:00 PM 03-13-2018 9:00 PM Learn More Florida 28.127800000000000 -80.578100000000000 1 mtgCollisionCourse SSCOLL_FL_180313
Daytona Beach, FL 03-14-2018 7:00 PM 03-14-2018 9:00 PM Learn More Florida 29.192224000000000 -81.050670000000000 1 mtgCollisionCourse SSCOLL_FL_180314
Ocala, FL 03-15-2018 7:00 PM 03-15-2018 9:00 PM Learn More Florida 29.150767000000000 -82.182562000000000 1 mtgCollisionCourse SSCOLL_FL_180315
Ypsilanti, MI 03-19-2018 7:00 PM 03-19-2018 9:00 PM Learn More Michigan 42.223004000000000 -83.617762000000000 1 mtgCollisionCourse SSCOLL_MI_180319
Monroe, NC 03-19-2018 7:00 PM 03-19-2018 9:00 PM Learn More North Carolina 35.032456000000000 -80.620515000000000 1 mtgCollisionCourse SSCOLL_NC_180319
Independence, OH 03-20-2018 7:00 PM 03-20-2018 9:00 PM Learn More Ohio 41.396766000000000 -81.653329000000000 1 mtgCollisionCourse SSCOLL_OH_180320
Fletcher, NC 03-20-2018 7:00 PM 03-20-2018 9:00 PM Learn More North Carolina 35.431500000000000 -82.533900000000000 1 mtgCollisionCourse SSCOLL_NC_180320
Columbus, OH 03-21-2018 7:00 PM 03-21-2018 9:00 PM Learn More Ohio 40.099986000000000 -82.987384000000000 1 mtgCollisionCourse SSCOLL_OH_180321
Greensboro, NC 03-21-2018 7:00 PM 03-21-2018 9:00 PM Learn More North Carolina 36.094387000000000 -79.915961000000000 1 mtgCollisionCourse SSCOLL_NC_180321
Batavia, OH 03-22-2018 7:00 PM 03-22-2018 9:00 PM Learn More Ohio 39.073244000000000 -84.213867000000000 1 mtgCollisionCourse SSCOLL_OH_180322
Morrisville, NC Special Aviation Location Fly to this Location 03-22-2018 7:00 PM 03-22-2018 9:00 PM Learn More North Carolina 35.853500000000000 -78.831500000000000 1 mtgCollisionCourse SSCOLL_NC_180322
Northbrook, IL 03-26-2018 7:00 PM 03-26-2018 9:00 PM Learn More Illinois 42.100515000000000 -87.882917000000000 1 mtgCollisionCourse SSCOLL_IL_180326
Butler, PA 03-26-2018 7:00 PM 03-26-2018 9:00 PM Learn More Pennsylvania 40.779406000000000 -79.952066000000000 1 mtgCollisionCourse SSCOLL_PA_180326
Lisle, IL 03-27-2018 7:00 PM 03-27-2018 9:00 PM Learn More Illinois 41.808006000000000 -88.109355000000000 1 mtgCollisionCourse SSCOLL_IL_180327
Harrisburg, PA 03-27-2018 7:00 PM 03-27-2018 9:00 PM Learn More Pennsylvania 40.242900000000000 -76.801500000000000 1 mtgCollisionCourse SSCOLL_PA_180327
Greenville, SC 03-27-2018 7:00 PM 03-27-2018 9:00 PM Learn More South Carolina 34.864515000000000 -82.258605000000000 1 mtgCollisionCourse SSCOLL_SC_180327
East Peoria, IL 03-28-2018 7:00 PM 03-28-2018 9:00 PM Learn More Illinois 40.683300000000000 -89.590200000000000 1 mtgCollisionCourse SSCOLL_IL_180328
Bethlehem, PA 03-28-2018 7:00 PM 03-28-2018 9:00 PM Learn More Pennsylvania 40.664664000000000 -75.382485000000000 1 mtgCollisionCourse SSCOLL_PA_180328
Marietta, GA 03-28-2018 7:00 PM 03-28-2018 9:00 PM Learn More Georgia 33.942864000000000 -84.551975000000000 1 mtgCollisionCourse SSCOLL_GA_180328
Huntsville, AL 03-29-2018 7:00 PM 03-29-2018 9:00 PM Learn More Alabama 34.727744000000000 -86.589544000000000 1 mtgCollisionCourse SSCOLL_AL_180329
Poplar Grove, IL 03-29-2018 7:00 PM 03-29-2018 9:00 PM Learn More Illinois 42.327600000000000 -88.837100000000000 1 mtgCollisionCourse SSCOLL_IL_180329
King Of Prussia, PA 03-29-2018 7:00 PM 03-29-2018 9:00 PM Learn More Pennsylvania 40.089306000000000 -75.388475000000000 1 mtgCollisionCourse SSCOLL_PA_180329

Fly by Night

Fly by Night

Especially in light aircraft, flying after dark comes with real trade-offs. Smooth air, better performance, and stunning views are great—but they’re offset by trickier landings, invisible terrain, and limited emergency options. So what’s the key to staying safe after sundown?

ASI’s new seminar looks at night flying from a risk management perspective. Using decades of accident data, we identify common problems and recommend the best ways to avoid them. Along the way, we talk about:

  • Requirements for pilots and aircraft
  • Unique flight planning considerations
  • Why all nights are not created equal
  • Things that can take you by surprise

Location Start Time End Time State Latitude Longitude cssIndex Topic cssIndex
Sheboygan Falls, WI 02-07-2018 7:00 PM 02-07-2018 9:00 PM Learn More Wisconsin 43.763261000000000 -87.850443000000000 2 mtgFlybyNight SSFLY_WI_180207

IFR Decision Making

IFR Decision Making:  Chasing Choices

Processing information and making clear decisions while flying in IMC can be challenging.  In this seminar we'll analyze accident scenarios where stress and confusion in IMC can lead to task saturation, problematic choices, and suboptimal decisions.

Location Start Time End Time State Latitude Longitude cssIndex Topic cssIndex
Puyallup, WA 02-24-2018 10:30 AM 02-24-2018 11:30 AM Learn More Washington 47.184336000000000 -122.295204000000000 3 mtgIFRDecisionMaking SSIFR_WA_180224

Questions? Contact us at [email protected] or 800/USA-AOPA (800/872-2672)
Monday - Friday, 8:30 am - 6:00 pm ET